sensor_id;sensor_type;location;lat;lon;timestamp;temperature;humidity
27797;DHT22;15177;50.844;4.412;2023-09-08T00:02:07;23.70;99.90
27797;DHT22;15177;50.844;4.412;2023-09-08T00:04:33;23.60;99.90
27797;DHT22;15177;50.844;4.412;2023-09-08T00:07:00;23.50;99.90
27797;DHT22;15177;50.844;4.412;2023-09-08T00:09:25;23.60;99.90
27797;DHT22;15177;50.844;4.412;2023-09-08T00:11:51;23.40;99.90
27797;DHT22;15177;50.844;4.412;2023-09-08T00:14:17;23.40;99.90
27797;DHT22;15177;50.844;4.412;2023-09-08T00:16:43;23.30;99.90
27797;DHT22;15177;50.844;4.412;2023-09-08T00:19:10;23.20;99.90
27797;DHT22;15177;50.844;4.412;2023-09-08T00:21:36;23.10;99.90
27797;DHT22;15177;50.844;4.412;2023-09-08T00:24:02;23.10;99.90
27797;DHT22;15177;50.844;4.412;2023-09-08T00:26:29;23.10;99.90
27797;DHT22;15177;50.844;4.412;2023-09-08T00:28:55;23.30;99.90
27797;DHT22;15177;50.844;4.412;2023-09-08T00:31:20;23.50;99.90
27797;DHT22;15177;50.844;4.412;2023-09-08T00:33:46;23.50;99.90
27797;DHT22;15177;50.844;4.412;2023-09-08T00:36:12;23.40;99.90
27797;DHT22;15177;50.844;4.412;2023-09-08T00:38:37;23.40;99.90
27797;DHT22;15177;50.844;4.412;2023-09-08T00:41:05;23.50;99.90
27797;DHT22;15177;50.844;4.412;2023-09-08T00:43:31;23.50;99.90
27797;DHT22;15177;50.844;4.412;2023-09-08T00:45:57;23.40;99.90
27797;DHT22;15177;50.844;4.412;2023-09-08T00:48:24;23.50;99.90
27797;DHT22;15177;50.844;4.412;2023-09-08T00:50:51;23.60;99.90
27797;DHT22;15177;50.844;4.412;2023-09-08T00:53:17;23.60;99.90
27797;DHT22;15177;50.844;4.412;2023-09-08T00:55:43;23.50;99.90
27797;DHT22;15177;50.844;4.412;2023-09-08T00:58:10;23.60;99.90
27797;DHT22;15177;50.844;4.412;2023-09-08T01:00:36;23.70;99.90
27797;DHT22;15177;50.844;4.412;2023-09-08T01:03:02;23.70;99.90
27797;DHT22;15177;50.844;4.412;2023-09-08T01:05:28;23.60;99.90
27797;DHT22;15177;50.844;4.412;2023-09-08T01:07:54;23.70;99.90
27797;DHT22;15177;50.844;4.412;2023-09-08T01:10:21;23.60;99.90
27797;DHT22;15177;50.844;4.412;2023-09-08T01:12:47;23.60;99.90
27797;DHT22;15177;50.844;4.412;2023-09-08T01:15:13;23.70;99.90
27797;DHT22;15177;50.844;4.412;2023-09-08T01:17:38;23.70;99.90
27797;DHT22;15177;50.844;4.412;2023-09-08T01:25:26;23.60;99.90
27797;DHT22;15177;50.844;4.412;2023-09-08T01:27:55;23.60;99.90
27797;DHT22;15177;50.844;4.412;2023-09-08T01:30:23;23.50;99.90
27797;DHT22;15177;50.844;4.412;2023-09-08T01:32:51;23.30;99.90
27797;DHT22;15177;50.844;4.412;2023-09-08T01:35:16;23.40;99.90
27797;DHT22;15177;50.844;4.412;2023-09-08T01:37:45;23.40;99.90
27797;DHT22;15177;50.844;4.412;2023-09-08T01:40:11;23.30;99.90
27797;DHT22;15177;50.844;4.412;2023-09-08T01:42:38;23.40;99.90
27797;DHT22;15177;50.844;4.412;2023-09-08T01:45:04;23.40;99.90
27797;DHT22;15177;50.844;4.412;2023-09-08T01:47:30;23.50;99.90
27797;DHT22;15177;50.844;4.412;2023-09-08T01:49:56;23.50;99.90
27797;DHT22;15177;50.844;4.412;2023-09-08T01:52:22;23.40;99.90
27797;DHT22;15177;50.844;4.412;2023-09-08T01:54:47;23.40;99.90
27797;DHT22;15177;50.844;4.412;2023-09-08T01:57:13;23.20;99.90
27797;DHT22;15177;50.844;4.412;2023-09-08T01:59:39;23.10;99.90
27797;DHT22;15177;50.844;4.412;2023-09-08T02:02:05;23.10;99.90
27797;DHT22;15177;50.844;4.412;2023-09-08T02:04:32;23.10;99.90
27797;DHT22;15177;50.844;4.412;2023-09-08T02:06:57;23.10;99.90
27797;DHT22;15177;50.844;4.412;2023-09-08T02:09:39;23.20;99.90
27797;DHT22;15177;50.844;4.412;2023-09-08T02:12:05;23.10;99.90
27797;DHT22;15177;50.844;4.412;2023-09-08T02:14:31;23.10;99.90
27797;DHT22;15177;50.844;4.412;2023-09-08T02:16:57;23.10;99.90
27797;DHT22;15177;50.844;4.412;2023-09-08T02:19:23;23.10;99.90
27797;DHT22;15177;50.844;4.412;2023-09-08T02:21:49;23.10;99.90
27797;DHT22;15177;50.844;4.412;2023-09-08T02:24:14;23.20;99.90
27797;DHT22;15177;50.844;4.412;2023-09-08T02:26:40;23.20;99.90
27797;DHT22;15177;50.844;4.412;2023-09-08T02:29:06;23.10;99.90
27797;DHT22;15177;50.844;4.412;2023-09-08T02:31:33;23.10;99.90
27797;DHT22;15177;50.844;4.412;2023-09-08T02:33:59;23.10;99.90
27797;DHT22;15177;50.844;4.412;2023-09-08T02:36:24;23.10;99.90
27797;DHT22;15177;50.844;4.412;2023-09-08T02:38:55;23.20;99.90
27797;DHT22;15177;50.844;4.412;2023-09-08T02:41:21;23.20;99.90
27797;DHT22;15177;50.844;4.412;2023-09-08T02:43:47;23.10;99.90
27797;DHT22;15177;50.844;4.412;2023-09-08T02:46:13;23.20;99.90
27797;DHT22;15177;50.844;4.412;2023-09-08T02:48:39;23.30;99.90
27797;DHT22;15177;50.844;4.412;2023-09-08T02:51:05;23.30;99.90
27797;DHT22;15177;50.844;4.412;2023-09-08T02:53:31;23.30;99.90
27797;DHT22;15177;50.844;4.412;2023-09-08T02:55:57;23.30;99.90
27797;DHT22;15177;50.844;4.412;2023-09-08T02:58:24;23.20;99.90
27797;DHT22;15177;50.844;4.412;2023-09-08T03:00:50;23.10;99.90
27797;DHT22;15177;50.844;4.412;2023-09-08T03:03:18;22.90;99.90
27797;DHT22;15177;50.844;4.412;2023-09-08T03:05:43;22.90;99.90
27797;DHT22;15177;50.844;4.412;2023-09-08T03:08:09;22.90;99.90
27797;DHT22;15177;50.844;4.412;2023-09-08T03:10:35;22.90;99.90
27797;DHT22;15177;50.844;4.412;2023-09-08T03:13:01;23.00;99.90
27797;DHT22;15177;50.844;4.412;2023-09-08T03:15:27;22.90;99.90
27797;DHT22;15177;50.844;4.412;2023-09-08T03:17:57;22.80;99.90
27797;DHT22;15177;50.844;4.412;2023-09-08T03:20:26;22.90;99.90
27797;DHT22;15177;50.844;4.412;2023-09-08T03:22:54;22.90;99.90
27797;DHT22;15177;50.844;4.412;2023-09-08T03:25:20;22.70;99.90
27797;DHT22;15177;50.844;4.412;2023-09-08T03:27:46;22.80;99.90
27797;DHT22;15177;50.844;4.412;2023-09-08T03:30:12;22.80;99.90
27797;DHT22;15177;50.844;4.412;2023-09-08T03:32:37;22.70;99.90
27797;DHT22;15177;50.844;4.412;2023-09-08T03:35:04;22.70;99.90
27797;DHT22;15177;50.844;4.412;2023-09-08T03:37:34;22.80;99.90
27797;DHT22;15177;50.844;4.412;2023-09-08T03:40:00;22.80;99.90
27797;DHT22;15177;50.844;4.412;2023-09-08T03:42:25;22.80;99.90
27797;DHT22;15177;50.844;4.412;2023-09-08T03:44:51;22.80;99.90
27797;DHT22;15177;50.844;4.412;2023-09-08T03:47:16;22.80;99.90
27797;DHT22;15177;50.844;4.412;2023-09-08T03:49:42;22.90;99.90
27797;DHT22;15177;50.844;4.412;2023-09-08T03:52:07;22.90;99.90
27797;DHT22;15177;50.844;4.412;2023-09-08T03:54:33;22.90;99.90
27797;DHT22;15177;50.844;4.412;2023-09-08T03:56:59;22.80;99.90
27797;DHT22;15177;50.844;4.412;2023-09-08T03:59:24;22.70;99.90
27797;DHT22;15177;50.844;4.412;2023-09-08T04:01:50;22.70;99.90
27797;DHT22;15177;50.844;4.412;2023-09-08T04:04:16;22.60;99.90
27797;DHT22;15177;50.844;4.412;2023-09-08T04:06:41;22.50;99.90
27797;DHT22;15177;50.844;4.412;2023-09-08T04:09:07;22.70;99.90
27797;DHT22;15177;50.844;4.412;2023-09-08T04:11:33;22.70;99.90
27797;DHT22;15177;50.844;4.412;2023-09-08T04:13:58;22.60;99.90
27797;DHT22;15177;50.844;4.412;2023-09-08T04:16:25;22.60;99.90
27797;DHT22;15177;50.844;4.412;2023-09-08T04:18:52;22.60;99.90
27797;DHT22;15177;50.844;4.412;2023-09-08T04:21:18;22.60;99.90
27797;DHT22;15177;50.844;4.412;2023-09-08T04:23:43;22.60;99.90
27797;DHT22;15177;50.844;4.412;2023-09-08T04:26:09;22.60;99.90
27797;DHT22;15177;50.844;4.412;2023-09-08T04:28:35;22.60;99.90
27797;DHT22;15177;50.844;4.412;2023-09-08T04:31:00;22.60;99.90
27797;DHT22;15177;50.844;4.412;2023-09-08T04:33:26;22.50;99.90
27797;DHT22;15177;50.844;4.412;2023-09-08T04:35:52;22.50;99.90
27797;DHT22;15177;50.844;4.412;2023-09-08T04:38:17;22.40;99.90
27797;DHT22;15177;50.844;4.412;2023-09-08T04:40:45;22.40;99.90
27797;DHT22;15177;50.844;4.412;2023-09-08T04:43:12;22.40;99.90
27797;DHT22;15177;50.844;4.412;2023-09-08T04:45:37;22.40;99.90
27797;DHT22;15177;50.844;4.412;2023-09-08T04:48:04;22.30;99.90
27797;DHT22;15177;50.844;4.412;2023-09-08T04:50:30;22.30;99.90
27797;DHT22;15177;50.844;4.412;2023-09-08T04:52:56;22.20;99.90
27797;DHT22;15177;50.844;4.412;2023-09-08T04:55:21;22.30;99.90
27797;DHT22;15177;50.844;4.412;2023-09-08T04:57:47;22.20;99.90
27797;DHT22;15177;50.844;4.412;2023-09-08T05:00:13;22.30;99.90
27797;DHT22;15177;50.844;4.412;2023-09-08T05:02:39;22.20;99.90
27797;DHT22;15177;50.844;4.412;2023-09-08T05:05:04;22.20;99.90
27797;DHT22;15177;50.844;4.412;2023-09-08T05:07:30;22.30;99.90
27797;DHT22;15177;50.844;4.412;2023-09-08T05:09:56;22.30;99.90
27797;DHT22;15177;50.844;4.412;2023-09-08T05:12:21;22.30;99.90
27797;DHT22;15177;50.844;4.412;2023-09-08T05:14:47;22.30;99.90
27797;DHT22;15177;50.844;4.412;2023-09-08T05:17:13;22.10;99.90
27797;DHT22;15177;50.844;4.412;2023-09-08T05:19:38;22.30;99.90
27797;DHT22;15177;50.844;4.412;2023-09-08T05:22:05;22.30;99.90
27797;DHT22;15177;50.844;4.412;2023-09-08T05:24:32;22.40;99.90
27797;DHT22;15177;50.844;4.412;2023-09-08T05:26:58;22.50;99.90
27797;DHT22;15177;50.844;4.412;2023-09-08T05:29:23;22.40;99.90
27797;DHT22;15177;50.844;4.412;2023-09-08T05:31:49;22.40;99.90
27797;DHT22;15177;50.844;4.412;2023-09-08T05:34:15;22.40;99.90
27797;DHT22;15177;50.844;4.412;2023-09-08T05:36:41;22.50;99.90
27797;DHT22;15177;50.844;4.412;2023-09-08T05:39:08;22.50;99.90
27797;DHT22;15177;50.844;4.412;2023-09-08T05:41:33;22.50;99.90
27797;DHT22;15177;50.844;4.412;2023-09-08T05:44:00;22.60;99.90
27797;DHT22;15177;50.844;4.412;2023-09-08T05:46:26;22.60;99.90
27797;DHT22;15177;50.844;4.412;2023-09-08T05:48:52;22.70;99.90
27797;DHT22;15177;50.844;4.412;2023-09-08T05:51:18;22.90;99.90
27797;DHT22;15177;50.844;4.412;2023-09-08T05:53:44;22.90;99.90
27797;DHT22;15177;50.844;4.412;2023-09-08T05:56:10;23.00;99.90
27797;DHT22;15177;50.844;4.412;2023-09-08T05:58:35;23.00;99.90
27797;DHT22;15177;50.844;4.412;2023-09-08T06:01:02;22.90;99.90
27797;DHT22;15177;50.844;4.412;2023-09-08T06:03:28;23.00;99.90
27797;DHT22;15177;50.844;4.412;2023-09-08T06:05:54;23.10;99.90
27797;DHT22;15177;50.844;4.412;2023-09-08T06:08:20;23.20;99.90
27797;DHT22;15177;50.844;4.412;2023-09-08T06:10:45;23.40;99.90
27797;DHT22;15177;50.844;4.412;2023-09-08T06:13:11;23.50;99.90
27797;DHT22;15177;50.844;4.412;2023-09-08T06:15:37;23.60;99.90
27797;DHT22;15177;50.844;4.412;2023-09-08T06:18:02;23.60;99.90
27797;DHT22;15177;50.844;4.412;2023-09-08T06:20:28;24.00;99.90
27797;DHT22;15177;50.844;4.412;2023-09-08T06:22:54;25.10;99.90
27797;DHT22;15177;50.844;4.412;2023-09-08T06:25:20;26.70;99.90
27797;DHT22;15177;50.844;4.412;2023-09-08T06:27:46;28.20;99.90
27797;DHT22;15177;50.844;4.412;2023-09-08T06:30:12;29.50;99.90
27797;DHT22;15177;50.844;4.412;2023-09-08T06:32:42;30.80;99.90
27797;DHT22;15177;50.844;4.412;2023-09-08T06:35:08;32.00;99.90
27797;DHT22;15177;50.844;4.412;2023-09-08T06:37:37;33.00;98.40
27797;DHT22;15177;50.844;4.412;2023-09-08T06:40:04;34.00;95.40
27797;DHT22;15177;50.844;4.412;2023-09-08T06:42:30;34.70;92.80
27797;DHT22;15177;50.844;4.412;2023-09-08T06:44:55;35.40;90.40
27797;DHT22;15177;50.844;4.412;2023-09-08T06:47:21;36.10;86.80
27797;DHT22;15177;50.844;4.412;2023-09-08T06:49:47;36.50;82.20
27797;DHT22;15177;50.844;4.412;2023-09-08T06:52:12;37.20;79.40
27797;DHT22;15177;50.844;4.412;2023-09-08T06:54:38;37.60;76.30
27797;DHT22;15177;50.844;4.412;2023-09-08T06:57:04;38.00;74.20
27797;DHT22;15177;50.844;4.412;2023-09-08T06:59:30;38.50;71.50
27797;DHT22;15177;50.844;4.412;2023-09-08T07:01:55;38.90;69.20
27797;DHT22;15177;50.844;4.412;2023-09-08T07:04:21;39.30;67.80
27797;DHT22;15177;50.844;4.412;2023-09-08T07:06:47;39.30;66.40
27797;DHT22;15177;50.844;4.412;2023-09-08T07:09:13;39.40;65.20
27797;DHT22;15177;50.844;4.412;2023-09-08T07:11:38;39.60;64.50
27797;DHT22;15177;50.844;4.412;2023-09-08T07:14:04;39.70;63.80
27797;DHT22;15177;50.844;4.412;2023-09-08T07:16:30;39.80;63.30
27797;DHT22;15177;50.844;4.412;2023-09-08T07:18:55;39.80;62.70
27797;DHT22;15177;50.844;4.412;2023-09-08T07:21:21;39.80;62.80
27797;DHT22;15177;50.844;4.412;2023-09-08T07:23:46;39.60;62.60
27797;DHT22;15177;50.844;4.412;2023-09-08T07:26:12;39.90;61.60
27797;DHT22;15177;50.844;4.412;2023-09-08T07:28:38;40.30;60.90
27797;DHT22;15177;50.844;4.412;2023-09-08T07:31:05;40.50;60.10
27797;DHT22;15177;50.844;4.412;2023-09-08T07:33:31;40.70;59.60
27797;DHT22;15177;50.844;4.412;2023-09-08T07:35:59;41.00;59.30
27797;DHT22;15177;50.844;4.412;2023-09-08T07:38:28;41.10;59.10
27797;DHT22;15177;50.844;4.412;2023-09-08T07:40:53;40.90;58.10
27797;DHT22;15177;50.844;4.412;2023-09-08T07:43:19;41.10;58.40
27797;DHT22;15177;50.844;4.412;2023-09-08T07:45:45;41.30;57.50
27797;DHT22;15177;50.844;4.412;2023-09-08T07:48:10;41.40;57.30
27797;DHT22;15177;50.844;4.412;2023-09-08T07:50:36;41.50;57.00
27797;DHT22;15177;50.844;4.412;2023-09-08T07:53:02;41.60;56.90
27797;DHT22;15177;50.844;4.412;2023-09-08T07:55:28;42.00;56.80
27797;DHT22;15177;50.844;4.412;2023-09-08T07:57:54;42.10;55.80
27797;DHT22;15177;50.844;4.412;2023-09-08T08:00:21;42.00;55.60
27797;DHT22;15177;50.844;4.412;2023-09-08T08:02:48;41.90;55.80
27797;DHT22;15177;50.844;4.412;2023-09-08T08:05:15;41.90;55.90
27797;DHT22;15177;50.844;4.412;2023-09-08T08:07:42;42.10;55.60
27797;DHT22;15177;50.844;4.412;2023-09-08T08:10:09;42.10;54.90
27797;DHT22;15177;50.844;4.412;2023-09-08T08:12:36;42.00;55.30
27797;DHT22;15177;50.844;4.412;2023-09-08T08:15:02;41.80;55.60
27797;DHT22;15177;50.844;4.412;2023-09-08T08:17:30;42.10;55.10
27797;DHT22;15177;50.844;4.412;2023-09-08T08:19:56;42.20;54.70
27797;DHT22;15177;50.844;4.412;2023-09-08T08:22:24;42.00;54.80
27797;DHT22;15177;50.844;4.412;2023-09-08T08:24:50;42.10;54.80
27797;DHT22;15177;50.844;4.412;2023-09-08T08:27:16;41.80;55.10
27797;DHT22;15177;50.844;4.412;2023-09-08T08:29:42;41.80;55.20
27797;DHT22;15177;50.844;4.412;2023-09-08T08:32:07;41.90;55.00
27797;DHT22;15177;50.844;4.412;2023-09-08T08:34:33;42.40;54.80
27797;DHT22;15177;50.844;4.412;2023-09-08T08:36:58;42.50;54.30
27797;DHT22;15177;50.844;4.412;2023-09-08T08:39:24;42.50;54.30
27797;DHT22;15177;50.844;4.412;2023-09-08T08:41:50;42.50;54.30
27797;DHT22;15177;50.844;4.412;2023-09-08T08:44:17;42.80;54.10
27797;DHT22;15177;50.844;4.412;2023-09-08T08:46:45;42.70;53.50
27797;DHT22;15177;50.844;4.412;2023-09-08T08:49:15;42.70;53.50
27797;DHT22;15177;50.844;4.412;2023-09-08T08:51:45;42.80;53.60
27797;DHT22;15177;50.844;4.412;2023-09-08T08:54:15;42.80;53.50
27797;DHT22;15177;50.844;4.412;2023-09-08T08:56:41;42.70;53.40
27797;DHT22;15177;50.844;4.412;2023-09-08T08:59:08;42.60;53.50
27797;DHT22;15177;50.844;4.412;2023-09-08T09:01:35;42.40;54.00
27797;DHT22;15177;50.844;4.412;2023-09-08T09:04:01;42.90;53.60
27797;DHT22;15177;50.844;4.412;2023-09-08T09:06:30;43.30;53.10
27797;DHT22;15177;50.844;4.412;2023-09-08T09:08:56;43.70;52.20
27797;DHT22;15177;50.844;4.412;2023-09-08T09:11:22;44.00;51.80
27797;DHT22;15177;50.844;4.412;2023-09-08T09:13:47;43.60;51.90
27797;DHT22;15177;50.844;4.412;2023-09-08T09:16:13;43.70;51.80
27797;DHT22;15177;50.844;4.412;2023-09-08T09:18:58;43.50;52.00
27797;DHT22;15177;50.844;4.412;2023-09-08T09:21:44;43.50;52.00
27797;DHT22;15177;50.844;4.412;2023-09-08T09:24:17;43.70;51.80
27797;DHT22;15177;50.844;4.412;2023-09-08T09:26:43;44.00;51.40
27797;DHT22;15177;50.844;4.412;2023-09-08T09:29:18;44.00;51.00
27797;DHT22;15177;50.844;4.412;2023-09-08T09:32:16;43.90;51.40
27797;DHT22;15177;50.844;4.412;2023-09-08T09:34:49;44.00;51.60
27797;DHT22;15177;50.844;4.412;2023-09-08T09:37:15;43.70;51.50
27797;DHT22;15177;50.844;4.412;2023-09-08T09:39:41;43.50;51.40
27797;DHT22;15177;50.844;4.412;2023-09-08T09:42:07;43.40;51.70
27797;DHT22;15177;50.844;4.412;2023-09-08T09:44:33;42.70;52.30
27797;DHT22;15177;50.844;4.412;2023-09-08T09:47:00;42.80;52.40
27797;DHT22;15177;50.844;4.412;2023-09-08T09:49:26;43.10;51.90
27797;DHT22;15177;50.844;4.412;2023-09-08T09:51:58;43.10;51.40
27797;DHT22;15177;50.844;4.412;2023-09-08T09:54:24;43.10;51.50
27797;DHT22;15177;50.844;4.412;2023-09-08T09:56:50;43.10;51.90
27797;DHT22;15177;50.844;4.412;2023-09-08T09:59:17;43.30;51.50
27797;DHT22;15177;50.844;4.412;2023-09-08T10:01:43;43.60;50.90
27797;DHT22;15177;50.844;4.412;2023-09-08T10:04:09;43.90;50.60
27797;DHT22;15177;50.844;4.412;2023-09-08T10:06:37;43.80;51.10
27797;DHT22;15177;50.844;4.412;2023-09-08T10:09:04;44.00;50.40
27797;DHT22;15177;50.844;4.412;2023-09-08T10:11:48;44.00;50.20
27797;DHT22;15177;50.844;4.412;2023-09-08T10:14:18;44.20;49.90
27797;DHT22;15177;50.844;4.412;2023-09-08T10:16:45;44.00;50.10
27797;DHT22;15177;50.844;4.412;2023-09-08T10:19:15;43.40;50.60
27797;DHT22;15177;50.844;4.412;2023-09-08T10:21:45;43.40;50.90
27797;DHT22;15177;50.844;4.412;2023-09-08T10:24:37;43.70;50.00
27797;DHT22;15177;50.844;4.412;2023-09-08T10:27:12;44.00;49.50
27797;DHT22;15177;50.844;4.412;2023-09-08T10:29:38;43.90;49.40
27797;DHT22;15177;50.844;4.412;2023-09-08T10:32:07;43.80;49.10
27797;DHT22;15177;50.844;4.412;2023-09-08T10:34:34;43.60;49.80
27797;DHT22;15177;50.844;4.412;2023-09-08T10:37:02;43.30;49.80
27797;DHT22;15177;50.844;4.412;2023-09-08T10:47:39;42.90;49.00
27797;DHT22;15177;50.844;4.412;2023-09-08T10:50:03;42.90;49.30
27797;DHT22;15177;50.844;4.412;2023-09-08T10:52:30;43.00;49.40
27797;DHT22;15177;50.844;4.412;2023-09-08T10:54:58;42.80;49.90
27797;DHT22;15177;50.844;4.412;2023-09-08T10:57:25;42.60;50.50
27797;DHT22;15177;50.844;4.412;2023-09-08T11:02:49;42.60;49.80
27797;DHT22;15177;50.844;4.412;2023-09-08T11:05:21;42.70;49.60
27797;DHT22;15177;50.844;4.412;2023-09-08T11:07:49;42.30;49.70
27797;DHT22;15177;50.844;4.412;2023-09-08T11:10:15;41.80;50.00
27797;DHT22;15177;50.844;4.412;2023-09-08T11:12:41;41.30;50.40
27797;DHT22;15177;50.844;4.412;2023-09-08T11:15:08;40.60;51.20
27797;DHT22;15177;50.844;4.412;2023-09-08T11:17:38;39.90;52.00
27797;DHT22;15177;50.844;4.412;2023-09-08T11:20:08;39.40;52.70
27797;DHT22;15177;50.844;4.412;2023-09-08T11:22:38;38.80;53.10
27797;DHT22;15177;50.844;4.412;2023-09-08T11:25:07;38.30;53.70
27797;DHT22;15177;50.844;4.412;2023-09-08T11:27:33;37.90;54.50
27797;DHT22;15177;50.844;4.412;2023-09-08T11:29:59;37.40;55.10
27797;DHT22;15177;50.844;4.412;2023-09-08T11:32:32;37.10;55.90
27797;DHT22;15177;50.844;4.412;2023-09-08T11:35:07;36.60;56.10
27797;DHT22;15177;50.844;4.412;2023-09-08T11:37:39;36.30;57.20
27797;DHT22;15177;50.844;4.412;2023-09-08T11:40:05;35.90;57.10
27797;DHT22;15177;50.844;4.412;2023-09-08T11:42:35;35.70;57.70
27797;DHT22;15177;50.844;4.412;2023-09-08T11:45:01;35.60;58.00
27797;DHT22;15177;50.844;4.412;2023-09-08T11:47:29;35.40;58.10
27797;DHT22;15177;50.844;4.412;2023-09-08T11:49:56;35.30;58.40
27797;DHT22;15177;50.844;4.412;2023-09-08T11:52:25;35.20;58.60
27797;DHT22;15177;50.844;4.412;2023-09-08T11:54:51;35.00;59.00
27797;DHT22;15177;50.844;4.412;2023-09-08T11:57:17;35.00;59.70
27797;DHT22;15177;50.844;4.412;2023-09-08T11:59:44;34.90;59.30
27797;DHT22;15177;50.844;4.412;2023-09-08T12:02:13;34.60;60.20
27797;DHT22;15177;50.844;4.412;2023-09-08T12:04:39;34.80;59.40
27797;DHT22;15177;50.844;4.412;2023-09-08T12:07:11;34.80;59.10
27797;DHT22;15177;50.844;4.412;2023-09-08T12:09:40;34.80;59.60
27797;DHT22;15177;50.844;4.412;2023-09-08T12:12:11;34.80;59.40
27797;DHT22;15177;50.844;4.412;2023-09-08T12:14:41;34.70;59.70
27797;DHT22;15177;50.844;4.412;2023-09-08T12:17:07;34.40;60.50
27797;DHT22;15177;50.844;4.412;2023-09-08T12:19:33;34.40;60.60
27797;DHT22;15177;50.844;4.412;2023-09-08T12:22:03;34.30;61.50
27797;DHT22;15177;50.844;4.412;2023-09-08T12:27:18;34.30;62.20
27797;DHT22;15177;50.844;4.412;2023-09-08T12:29:56;34.20;62.40
27797;DHT22;15177;50.844;4.412;2023-09-08T12:32:23;34.20;62.80
27797;DHT22;15177;50.844;4.412;2023-09-08T12:34:51;34.10;62.70
27797;DHT22;15177;50.844;4.412;2023-09-08T12:37:21;34.10;62.60
27797;DHT22;15177;50.844;4.412;2023-09-08T12:39:47;34.10;62.90
27797;DHT22;15177;50.844;4.412;2023-09-08T12:42:13;33.90;64.10
27797;DHT22;15177;50.844;4.412;2023-09-08T12:44:39;33.90;64.30
27797;DHT22;15177;50.844;4.412;2023-09-08T12:47:06;33.70;65.50
27797;DHT22;15177;50.844;4.412;2023-09-08T12:49:32;33.80;66.00
27797;DHT22;15177;50.844;4.412;2023-09-08T12:51:57;33.80;65.90
27797;DHT22;15177;50.844;4.412;2023-09-08T12:54:24;33.70;67.20
27797;DHT22;15177;50.844;4.412;2023-09-08T12:56:50;33.60;67.60
27797;DHT22;15177;50.844;4.412;2023-09-08T12:59:16;33.70;67.10
27797;DHT22;15177;50.844;4.412;2023-09-08T13:01:42;33.60;65.70
27797;DHT22;15177;50.844;4.412;2023-09-08T13:04:07;33.50;65.90
27797;DHT22;15177;50.844;4.412;2023-09-08T13:06:33;33.50;66.80
27797;DHT22;15177;50.844;4.412;2023-09-08T13:09:00;33.50;66.60
27797;DHT22;15177;50.844;4.412;2023-09-08T13:11:26;33.50;66.20
27797;DHT22;15177;50.844;4.412;2023-09-08T13:13:53;33.40;67.30
27797;DHT22;15177;50.844;4.412;2023-09-08T13:16:19;33.30;68.20
27797;DHT22;15177;50.844;4.412;2023-09-08T13:18:44;33.30;68.10
27797;DHT22;15177;50.844;4.412;2023-09-08T13:21:11;33.20;68.50
27797;DHT22;15177;50.844;4.412;2023-09-08T13:23:36;33.30;68.60
27797;DHT22;15177;50.844;4.412;2023-09-08T13:26:02;33.20;68.80
27797;DHT22;15177;50.844;4.412;2023-09-08T13:28:28;33.30;68.60
27797;DHT22;15177;50.844;4.412;2023-09-08T13:30:53;33.40;67.90
27797;DHT22;15177;50.844;4.412;2023-09-08T13:33:19;33.30;68.00
27797;DHT22;15177;50.844;4.412;2023-09-08T13:35:45;33.30;67.80
27797;DHT22;15177;50.844;4.412;2023-09-08T13:38:11;33.30;68.10
27797;DHT22;15177;50.844;4.412;2023-09-08T13:40:38;33.30;69.00
27797;DHT22;15177;50.844;4.412;2023-09-08T13:43:03;33.30;68.60
27797;DHT22;15177;50.844;4.412;2023-09-08T13:45:29;33.30;68.20
27797;DHT22;15177;50.844;4.412;2023-09-08T13:47:55;33.20;69.00
27797;DHT22;15177;50.844;4.412;2023-09-08T13:50:21;33.10;69.90
27797;DHT22;15177;50.844;4.412;2023-09-08T13:52:49;32.90;71.50
27797;DHT22;15177;50.844;4.412;2023-09-08T13:55:14;33.00;72.40
27797;DHT22;15177;50.844;4.412;2023-09-08T13:57:40;33.00;72.20
27797;DHT22;15177;50.844;4.412;2023-09-08T14:00:06;33.00;72.50
27797;DHT22;15177;50.844;4.412;2023-09-08T14:02:34;33.00;73.50
27797;DHT22;15177;50.844;4.412;2023-09-08T14:04:59;33.10;72.70
27797;DHT22;15177;50.844;4.412;2023-09-08T14:07:25;33.20;72.50
27797;DHT22;15177;50.844;4.412;2023-09-08T14:09:51;33.10;72.20
27797;DHT22;15177;50.844;4.412;2023-09-08T14:12:16;33.20;72.70
27797;DHT22;15177;50.844;4.412;2023-09-08T14:14:42;33.10;73.00
27797;DHT22;15177;50.844;4.412;2023-09-08T14:17:08;33.00;73.00
27797;DHT22;15177;50.844;4.412;2023-09-08T14:19:33;32.80;74.30
27797;DHT22;15177;50.844;4.412;2023-09-08T14:21:59;32.70;74.40
27797;DHT22;15177;50.844;4.412;2023-09-08T14:24:24;32.60;74.50
27797;DHT22;15177;50.844;4.412;2023-09-08T14:26:51;32.60;74.70
27797;DHT22;15177;50.844;4.412;2023-09-08T14:29:17;32.40;75.70
27797;DHT22;15177;50.844;4.412;2023-09-08T14:31:43;32.30;76.00
27797;DHT22;15177;50.844;4.412;2023-09-08T14:34:09;32.30;76.10
27797;DHT22;15177;50.844;4.412;2023-09-08T14:36:34;32.30;76.80
27797;DHT22;15177;50.844;4.412;2023-09-08T14:39:00;32.10;77.70
27797;DHT22;15177;50.844;4.412;2023-09-08T14:41:32;32.20;77.00
27797;DHT22;15177;50.844;4.412;2023-09-08T14:43:58;32.20;77.20
27797;DHT22;15177;50.844;4.412;2023-09-08T14:46:23;32.20;77.90
27797;DHT22;15177;50.844;4.412;2023-09-08T14:48:49;32.20;78.30
27797;DHT22;15177;50.844;4.412;2023-09-08T14:51:15;32.20;79.50
27797;DHT22;15177;50.844;4.412;2023-09-08T14:53:40;32.30;79.40
27797;DHT22;15177;50.844;4.412;2023-09-08T14:56:06;32.30;79.80
27797;DHT22;15177;50.844;4.412;2023-09-08T14:58:32;32.30;79.30
27797;DHT22;15177;50.844;4.412;2023-09-08T15:01:01;32.30;79.70
27797;DHT22;15177;50.844;4.412;2023-09-08T15:03:36;32.20;80.50
27797;DHT22;15177;50.844;4.412;2023-09-08T15:06:01;32.30;80.40
27797;DHT22;15177;50.844;4.412;2023-09-08T15:08:28;32.30;80.40
27797;DHT22;15177;50.844;4.412;2023-09-08T15:10:53;32.30;80.80
27797;DHT22;15177;50.844;4.412;2023-09-08T15:13:19;32.30;81.00
27797;DHT22;15177;50.844;4.412;2023-09-08T15:15:45;32.40;80.70
27797;DHT22;15177;50.844;4.412;2023-09-08T15:18:11;32.40;80.40
27797;DHT22;15177;50.844;4.412;2023-09-08T15:20:36;32.40;81.30
27797;DHT22;15177;50.844;4.412;2023-09-08T15:23:02;32.40;81.50
27797;DHT22;15177;50.844;4.412;2023-09-08T15:25:28;32.30;81.90
27797;DHT22;15177;50.844;4.412;2023-09-08T15:27:54;32.20;82.70
27797;DHT22;15177;50.844;4.412;2023-09-08T15:30:20;32.20;82.60
27797;DHT22;15177;50.844;4.412;2023-09-08T15:32:45;32.00;83.60
27797;DHT22;15177;50.844;4.412;2023-09-08T15:35:11;32.00;83.50
27797;DHT22;15177;50.844;4.412;2023-09-08T15:37:37;32.10;83.30
27797;DHT22;15177;50.844;4.412;2023-09-08T15:40:03;32.10;83.60
27797;DHT22;15177;50.844;4.412;2023-09-08T15:42:29;32.00;84.10
27797;DHT22;15177;50.844;4.412;2023-09-08T15:44:55;32.10;84.10
27797;DHT22;15177;50.844;4.412;2023-09-08T15:47:20;32.20;84.20